Monterrey, México

8:49 AM CDT en Septiembre 30, 2014 (GMT -0500)
PrepaUDEM Fundadores | Change Station
CLOSE
Current Station
Estación meteorológica personal
Location: Escobedo, NUEVO LEON
Altura: 1630 ft
Estaciones meteorológicas cercanas

Alt 1630 ft 25.77 °N, 100.30 °W | Updated 1 minute ago

Clear
Despejado
69.5 ° F
Sensación térmica 69.5 ° F
N
1.0
Viento Variable Viento desde NNE
Gusts 2.0 mph

Hoy
Alta -- | Baja -- ° F
--% Posibilidad de precipitaciones
Ayer
Alta -- | Baja -- ° F
Precip. -- pul
7:33 AM 7:28 PM
Creciente, 37% visible
Presión 29.89 pul
Visibilidad 6.0 Millas
Nubes Despejado
Punto de rocío 67 ° F
Humedad 92%
Precipitaciones 0.00 pul
Espesor de la nieve No disponible.
UV 0 de una escala de 12
Polen No disponible.
Calidad del aire No disponible.
Flu Activity No disponible.
METAR MMMY 301244Z 29004KT 6SM SKC 19/18 A2989 RMK HZ BR/N

More Conditions Fewer Conditions

Presión 29.89 pul
Visibilidad 6.0 Millas
Nubes Despejado
Punto de rocío 67 ° F
Humedad 92%
Precipitaciones 0.00 pul
Espesor de la nieve No disponible.
UV 0 de una escala de 12
Polen No disponible.
Calidad del aire No disponible.
Flu Activity No disponible.
METAR MMMY 301244Z 29004KT 6SM SKC 19/18 A2989 RMK HZ BR/N

More Conditions Fewer Conditions

10-Day Weather Forecast

Almanac

Astronomía

Sep. 30, 2014 Salida Puesta
Hora real 7:33 AM CDT 7:28 PM CDT
Crepúsculo civil 7:10 AM CDT 7:51 PM CDT
Crepúsculo náutico 6:43 AM CDT 8:18 PM CDT
Crepúsculo astronómico 6:16 AM CDT 8:45 PM CDT
Luna 1:16 PM CDT Sin puesta de luna
Horas de luz 12h 41m
Horas de luz
11h 55m
Tomorrow will be 1m 31s shorter.
Creciente, 37% of the Moon is Illuminated
Hoy
Creciente
Oct 1
Cuarto creciente
Oct 8
Luna llena
Oct 15
Cuarto menguante
Oct 23
Nueva

Extremos de ayer

Máximos del país Bajas del país

Community

WunderPhotos

Upload Photos

1,757,636 ¡fotos cargadas!

Nearby

Calidad del aire

Not available.

Grosos de nieve

Not available.

Actividad de terremotos

Ciudad Distance Mag. Tiempo y dato
No hay informes recientes de la actividad sísmica.
Magnitud mínima muestra es 2,5.

Temperaturas de aguas costeras

Lugar Temperatura
Sin partes meteorológicos de las estaciones

Estaciones meteorológicas cercanas